Accueil
METAR-TAF:

METAR-TAF

Aéroports :

Aéroport international Modibo Keïta

Bamako, Mali

latitude: 12-32N, longitude: 007-57W, altitude: 380 m

Observation

Le bulletin a été fait il y a 26 minutes, à 22:30 UTC
Vent 6 kt de est/nord-est
Température 28°C
Humidité 15%
Pression 1015 hPa
Visibilité: 8000 m

METAR: GABS 282230Z 06006KT 8000 NSC 28/M01 Q1015 NOSIG

Heure: 22:56 (22:56 UTC)

Prévision

Le bulletin a été fait il y a 5 heures et 56 minutes, à 17:00 UTC
Prévision valable du 28 à 18 UTC au 29 à 24 UTC
Vent 5 kt de est avec des rafales jusqu'à 15 kt
Visibilité: 8000 m
Probabilité 40% :
Temporairement
du 29 à 06 UTC au 29 à 16 UTC
Visibilité: 4000 m
poussière généralisée

TAF: GABS 281700Z 2818/2924 08005G15KT 8000 NSC PROB40 TEMPO 2906/2916 4000 DU

Observations et prévisions météorologiques de plus de 4000 aéroports (messages METAR et TAF).

Les stations disponibles sont représentées par des disques jaunes et rouges sur la carte.

Passer la souris dessus pour voir le nom de la station.

Cliquer dessus pour voir les observations et prévisions météorologiques.

Pour changer de carte: cliquez sur les boutons verts avec une croix noire pour zoomer, sur le bouton vert avec un tiret pour effectuer un zoom arrière, ou sur les flèches vertes pour les cartes adjacentes.


METAR-TAF: